Terminal Aerodrome Forecast
Issued by NWS

Home | Current Version | Previous Version | Text Only | Print | Product List | Glossary On
Versions: 1 2 3 4 5 6 7 8 9 10 11 12 13 14 15 16 17 18 19 20 21 22 23
000
FTUS46 KMFR 060542
TAFOTH
TAF
KOTH 060542Z 0606/0706 21005KT 3SM BR OVC004
     FM060800 VRB03KT 3SM BR OVC003
     FM061800 28008KT P6SM OVC012
     FM062100 28010KT P6SM FEW014 BKN150
     FM070400 25003KT P6SM OVC005=

USA.gov is the U.S. government's official web portal to all federal, state and local government web resources and services.